Terminal Aerodrome Forecast
Issued by NWS

Home | Current Version | Previous Version | Text Only | Print | Product List | Glossary On
Versions: 1 2 3 4 5 6 7 8 9 10 11 12 13 14 15 16 17
000
FTAK31 PAJN 250500
TAFASI
TAF
PASI 250534Z 2506/2606 22008KT P6SM FEW040 FEW150
     FM250700 33005KT P6SM SCT015 SCT100
     FM250900 33004KT P6SM OVC020
     FM251100 VRB03KT P6SM OVC015
     FM252000 25006KT P6SM SCT020 BKN100
     FM260000 30008KT P6SM FEW040 SCT120=

USA.gov is the U.S. government's official web portal to all federal, state and local government web resources and services.